createdAt,value
2024-01-11T00:01:01.522Z,73.32
2024-01-11T00:03:40.932Z,73.87
2024-01-11T00:06:20.505Z,73.94
2024-01-11T00:08:59.943Z,74.24
2024-01-11T00:11:39.375Z,74.24
2024-01-11T00:14:23.885Z,74.59
2024-01-11T00:17:03.269Z,75.08
2024-01-11T00:19:42.619Z,74.80
2024-01-11T00:22:21.962Z,74.89
2024-01-11T00:25:01.395Z,74.18
2024-01-11T00:27:40.872Z,74.19
2024-01-11T00:30:25.797Z,74.53
2024-01-11T00:33:05.311Z,74.68
2024-01-11T00:35:44.882Z,73.69
2024-01-11T00:38:24.457Z,73.81
2024-01-11T00:41:03.951Z,74.34
2024-01-11T00:43:43.738Z,75.62
2024-01-11T00:46:28.171Z,75.64
2024-01-11T00:49:07.682Z,75.62
2024-01-11T00:51:47.146Z,74.50
2024-01-11T00:54:27.123Z,73.61
2024-01-11T00:57:06.925Z,73.12
2024-01-11T00:59:46.512Z,74.07
2024-01-11T01:02:31.096Z,75.05
2024-01-11T01:05:11.669Z,74.88
2024-01-11T01:07:51.327Z,74.79
2024-01-11T01:10:30.681Z,75.48
2024-01-11T01:13:10.281Z,75.39
2024-01-11T01:15:49.707Z,75.82
2024-01-11T01:18:34.300Z,75.71
2024-01-11T01:21:14.043Z,75.21
2024-01-11T01:23:53.396Z,75.99
2024-01-11T01:26:32.762Z,75.61
2024-01-11T01:29:12.304Z,76.05
2024-01-11T01:31:51.714Z,76.25
2024-01-11T01:34:36.223Z,74.81
2024-01-11T01:37:15.612Z,75.87
2024-01-11T01:39:54.976Z,76.57
2024-01-11T01:42:34.439Z,76.45
2024-01-11T01:45:15.494Z,75.82
2024-01-11T01:47:54.997Z,75.17
2024-01-11T01:50:40.567Z,75.64
2024-01-11T01:53:20.146Z,75.60
2024-01-11T01:56:01.630Z,75.71
2024-01-11T01:58:42.299Z,75.69
2024-01-11T02:01:22.444Z,75.39
2024-01-11T02:04:03.600Z,76.38
2024-01-11T02:06:50.111Z,76.48
2024-01-11T02:09:30.599Z,77.13
2024-01-11T02:12:13.278Z,76.47
2024-01-11T02:14:52.983Z,76.27
2024-01-11T02:17:32.608Z,77.15
2024-01-11T02:20:13.092Z,76.90
2024-01-11T02:23:05.195Z,77.31
2024-01-11T02:25:49.668Z,77.61
2024-01-11T02:28:29.058Z,78.18
2024-01-11T02:31:08.487Z,76.83
2024-01-11T02:33:48.373Z,77.29
2024-01-11T02:36:29.307Z,77.51
2024-01-11T02:39:08.673Z,77.36
2024-01-11T02:41:53.617Z,76.94
2024-01-11T02:44:33.318Z,75.03
2024-01-11T02:47:12.803Z,75.13
2024-01-11T02:49:52.187Z,75.15
2024-01-11T02:52:32.044Z,76.23
2024-01-11T02:55:12.003Z,75.47
2024-01-11T02:57:56.554Z,75.08
2024-01-11T03:00:35.917Z,76.52
2024-01-11T03:03:15.404Z,76.67
2024-01-11T03:05:55.313Z,75.55
2024-01-11T03:08:35.108Z,75.60
2024-01-11T03:11:14.714Z,74.93
2024-01-11T03:13:59.181Z,74.44
2024-01-11T03:16:38.652Z,74.81
2024-01-11T03:19:18.084Z,75.22
2024-01-11T03:21:57.570Z,74.88
2024-01-11T03:24:37.002Z,75.07
2024-01-11T03:27:16.384Z,75.66
2024-01-11T03:30:00.997Z,75.81
2024-01-11T03:32:41.499Z,76.28
2024-01-11T03:35:21.732Z,76.37
2024-01-11T03:38:01.210Z,76.71
2024-01-11T03:40:40.735Z,76.42
2024-01-11T03:43:20.189Z,76.14
2024-01-11T03:46:04.798Z,77.04
2024-01-11T03:48:44.236Z,76.00
2024-01-11T03:51:23.686Z,75.68
2024-01-11T03:54:03.082Z,76.49
2024-01-11T03:56:46.943Z,77.17
2024-01-11T03:59:29.207Z,78.33
2024-01-11T04:02:13.714Z,76.82
2024-01-11T04:04:53.168Z,78.02
2024-01-11T04:07:32.849Z,77.78
2024-01-11T04:10:13.287Z,77.17
2024-01-11T04:12:52.851Z,76.59
2024-01-11T04:15:32.235Z,76.75
2024-01-11T04:18:17.093Z,75.97
2024-01-11T04:20:56.490Z,75.51
2024-01-11T04:23:35.979Z,76.14
2024-01-11T04:26:15.448Z,76.24
2024-01-11T04:28:57.027Z,75.81
2024-01-11T04:31:38.035Z,75.93
2024-01-11T04:34:22.601Z,76.24
2024-01-11T04:37:01.992Z,77.22
2024-01-11T04:39:41.350Z,75.84
2024-01-11T04:42:20.777Z,75.23
2024-01-11T04:45:00.170Z,76.33
2024-01-11T04:47:40.340Z,76.27
2024-01-11T04:50:25.041Z,75.88
2024-01-11T04:53:04.480Z,75.43
2024-01-11T04:55:44.208Z,74.85
2024-01-11T04:58:23.601Z,75.26
2024-01-11T05:01:03.009Z,75.49
2024-01-11T05:03:42.480Z,76.60
2024-01-11T05:06:31.847Z,76.12
2024-01-11T05:09:11.635Z,76.01
2024-01-11T05:11:51.013Z,75.87
2024-01-11T05:14:30.486Z,75.37
2024-01-11T05:17:10.295Z,76.00
2024-01-11T05:19:49.694Z,76.02
2024-01-11T05:22:34.155Z,76.56
2024-01-11T05:25:14.210Z,76.55
2024-01-11T05:27:53.581Z,76.29
2024-01-11T05:30:33.038Z,76.47
2024-01-11T05:33:12.813Z,76.36
2024-01-11T05:35:52.728Z,76.42
2024-01-11T05:38:37.397Z,77.65
2024-01-11T05:41:16.870Z,77.98
2024-01-11T05:43:56.988Z,77.29
2024-01-11T05:46:36.411Z,76.20
2024-01-11T05:49:16.053Z,77.99
2024-01-11T05:51:55.474Z,77.51
2024-01-11T05:54:39.957Z,75.47
2024-01-11T05:57:19.331Z,75.79
2024-01-11T05:59:58.743Z,76.26
2024-01-11T06:02:38.381Z,77.04
2024-01-11T06:05:18.179Z,77.43
2024-01-11T06:07:57.693Z,77.20
2024-01-11T06:10:42.301Z,77.49
2024-01-11T06:13:21.644Z,77.04
2024-01-11T06:16:01.011Z,78.26
2024-01-11T06:18:40.508Z,77.89
2024-01-11T06:21:19.995Z,78.40
2024-01-11T06:24:00.177Z,78.23
2024-01-11T06:26:44.794Z,78.02
2024-01-11T06:29:24.277Z,78.48
2024-01-11T06:32:03.763Z,77.86
2024-01-11T06:34:48.031Z,77.33
2024-01-11T06:37:27.545Z,75.67
2024-01-11T06:40:07.211Z,75.57
2024-01-11T06:42:51.809Z,75.96
2024-01-11T06:45:31.188Z,77.62
2024-01-11T06:48:11.346Z,77.08
2024-01-11T06:50:50.997Z,77.78
2024-01-11T06:53:30.539Z,77.88
2024-01-11T06:56:09.927Z,77.63
2024-01-11T06:58:55.095Z,77.46
2024-01-11T07:01:34.607Z,78.29
2024-01-11T07:04:14.115Z,77.82
2024-01-11T07:06:53.586Z,78.30
2024-01-11T07:09:33.081Z,78.68
2024-01-11T07:12:14.461Z,78.15
2024-01-11T07:14:58.941Z,77.47
2024-01-11T07:17:38.416Z,76.72
2024-01-11T07:20:21.072Z,77.99
2024-01-11T07:23:00.690Z,78.40
2024-01-11T07:25:40.114Z,77.22
2024-01-11T07:28:19.608Z,76.44
2024-01-11T07:31:04.207Z,76.36
2024-01-11T07:33:43.809Z,76.95
2024-01-11T07:36:23.945Z,77.25
2024-01-11T07:39:03.520Z,77.01
2024-01-11T07:41:43.246Z,77.15
2024-01-11T07:44:23.201Z,77.44
2024-01-11T07:47:07.973Z,77.47
2024-01-11T07:49:47.439Z,76.47
2024-01-11T07:52:27.175Z,76.62
2024-01-11T07:55:09.713Z,77.31
2024-01-11T07:57:49.828Z,77.40
2024-01-11T08:00:30.280Z,78.05
2024-01-11T08:03:14.939Z,77.82
2024-01-11T08:05:54.494Z,77.88
2024-01-11T08:08:34.186Z,78.60
2024-01-11T08:11:14.708Z,78.62
2024-01-11T08:13:57.089Z,78.84
2024-01-11T08:16:37.124Z,78.64
2024-01-11T08:19:21.733Z,78.43
2024-01-11T08:22:01.653Z,77.92
2024-01-11T08:24:41.381Z,77.90
2024-01-11T08:27:20.764Z,77.69
2024-01-11T08:30:00.099Z,77.26
2024-01-11T08:32:41.648Z,76.72
2024-01-11T08:35:26.301Z,78.34
2024-01-11T08:38:06.151Z,77.94
2024-01-11T08:40:46.894Z,78.82
2024-01-11T08:43:26.424Z,77.34
2024-01-11T08:46:06.167Z,77.16
2024-01-11T08:48:45.631Z,77.75
2024-01-11T08:51:30.664Z,77.81
2024-01-11T08:54:11.748Z,76.79
2024-01-11T08:56:51.313Z,77.21
2024-01-11T08:59:31.097Z,78.15
2024-01-11T09:02:15.504Z,78.52
2024-01-11T09:04:58.244Z,78.10
2024-01-11T09:07:42.825Z,79.24
2024-01-11T09:10:22.285Z,79.01
2024-01-11T09:13:02.179Z,79.13
2024-01-11T09:15:41.718Z,79.76
2024-01-11T09:18:21.343Z,80.74
2024-01-11T09:21:00.870Z,80.60
2024-01-11T09:23:45.480Z,79.95
2024-01-11T09:26:24.941Z,78.53
2024-01-11T09:29:04.726Z,79.53
2024-01-11T09:31:44.669Z,80.07
2024-01-11T09:34:24.498Z,80.03
2024-01-11T09:37:05.911Z,80.27
2024-01-11T09:39:50.723Z,79.15
2024-01-11T09:42:30.375Z,78.38
2024-01-11T09:45:10.901Z,77.91
2024-01-11T09:47:52.728Z,77.91
2024-01-11T09:50:33.570Z,77.55
2024-01-11T09:53:15.659Z,68.90
2024-01-11T09:56:02.302Z,59.06
2024-01-11T09:58:44.083Z,57.81
2024-01-11T10:01:24.488Z,58.01
2024-01-11T10:04:04.332Z,58.47
2024-01-11T10:06:47.462Z,57.35
2024-01-11T10:09:27.001Z,57.22
2024-01-11T10:12:12.196Z,56.88
2024-01-11T10:14:51.683Z,56.97
2024-01-11T10:17:31.282Z,56.20
2024-01-11T10:20:13.143Z,55.19
2024-01-11T10:22:55.394Z,56.40
2024-01-11T10:25:35.051Z,55.45
2024-01-11T10:28:21.852Z,54.72
2024-01-11T10:31:01.973Z,51.70
2024-01-11T10:33:43.256Z,48.18
2024-01-11T10:36:22.777Z,48.06
2024-01-11T10:39:07.075Z,47.69
2024-01-11T10:41:49.129Z,47.40
2024-01-11T10:47:30.338Z,50.53
2024-01-11T10:50:12.872Z,49.37
2024-01-11T10:53:08.965Z,49.14
2024-01-11T10:55:50.832Z,47.27
2024-01-11T10:58:32.679Z,46.39
2024-01-11T11:01:15.791Z,45.65
2024-01-11T11:04:03.703Z,45.81
2024-01-11T11:06:45.237Z,45.85
2024-01-11T11:09:26.356Z,44.81
2024-01-11T11:12:07.144Z,43.84
2024-01-11T11:14:47.323Z,42.79
2024-01-11T11:17:27.418Z,43.56
2024-01-11T11:20:14.699Z,42.40
2024-01-11T11:23:12.242Z,42.71
2024-01-11T11:25:54.382Z,42.91
2024-01-11T11:28:36.947Z,42.36
2024-01-11T11:31:16.267Z,41.47
2024-01-11T11:33:59.730Z,40.54
2024-01-11T11:36:44.374Z,40.18
2024-01-11T11:39:24.268Z,40.16
2024-01-11T11:42:03.884Z,39.36
2024-01-11T11:44:44.088Z,38.02
2024-01-11T11:47:30.782Z,38.30
2024-01-11T11:50:16.251Z,38.38
2024-01-11T11:53:03.508Z,38.11
2024-01-11T11:55:43.773Z,37.97
2024-01-11T11:58:23.065Z,36.18
2024-01-11T12:01:04.184Z,35.96
2024-01-11T12:03:45.102Z,36.04
2024-01-11T12:06:26.991Z,35.47
2024-01-11T12:09:11.510Z,34.28
2024-01-11T12:11:58.466Z,34.73
2024-01-11T12:14:46.454Z,35.10
2024-01-11T12:17:26.137Z,34.81
2024-01-11T12:20:05.923Z,35.11
2024-01-11T12:22:45.213Z,34.97
2024-01-11T12:25:29.856Z,35.23
2024-01-11T12:28:09.377Z,34.49
2024-01-11T12:30:49.015Z,34.70
2024-01-11T12:33:29.691Z,34.27
2024-01-11T12:36:10.148Z,33.96
2024-01-11T12:38:55.667Z,33.79
2024-01-11T12:41:41.110Z,33.69
2024-01-11T12:44:20.511Z,33.89
2024-01-11T12:47:00.566Z,33.85
2024-01-11T12:49:39.979Z,33.81
2024-01-11T12:52:26.443Z,32.70
2024-01-11T12:55:06.817Z,31.17
2024-01-11T12:57:51.281Z,31.84
2024-01-11T13:00:31.429Z,30.95
2024-01-11T13:03:11.133Z,31.78
2024-01-11T13:05:50.838Z,32.15
2024-01-11T13:08:31.334Z,32.11
2024-01-11T13:11:11.663Z,30.51
2024-01-11T13:13:56.034Z,30.63
2024-01-11T13:16:35.354Z,31.53
2024-01-11T13:19:23.792Z,30.37
2024-01-11T13:22:06.490Z,30.93
2024-01-11T13:24:46.037Z,30.72
2024-01-11T13:27:25.329Z,30.66
2024-01-11T13:30:10.797Z,30.70
2024-01-11T13:32:50.349Z,30.76
2024-01-11T13:35:30.147Z,31.19
2024-01-11T13:38:09.995Z,31.17
2024-01-11T13:40:49.571Z,31.60
2024-01-11T13:43:28.872Z,31.65
2024-01-11T13:46:14.288Z,32.30
2024-01-11T13:48:53.991Z,31.87
2024-01-11T13:51:42.838Z,31.87
2024-01-11T13:54:25.923Z,31.92
2024-01-11T13:57:05.319Z,32.95
2024-01-11T13:59:44.689Z,32.85
2024-01-11T14:02:29.104Z,33.42
2024-01-11T14:05:09.557Z,32.77
2024-01-11T14:07:50.201Z,31.92
2024-01-11T14:10:30.075Z,33.17
2024-01-11T14:13:11.853Z,33.61
2024-01-11T14:15:53.061Z,33.63
2024-01-11T14:18:37.587Z,32.97
2024-01-11T14:21:17.380Z,33.31
2024-01-11T14:23:56.693Z,33.03
2024-01-11T14:26:36.528Z,32.11
2024-01-11T14:29:15.903Z,30.92
2024-01-11T14:31:55.535Z,30.52
2024-01-11T14:34:41.252Z,31.22
2024-01-11T14:37:21.142Z,31.69
2024-01-11T14:40:00.552Z,31.83
2024-01-11T14:42:40.174Z,32.85
2024-01-11T14:45:19.594Z,32.73
2024-01-11T14:48:00.713Z,32.97
2024-01-11T14:50:45.606Z,33.05
2024-01-11T14:53:25.001Z,34.14
2024-01-11T14:56:04.833Z,35.11
2024-01-11T14:58:44.147Z,35.82
2024-01-11T15:01:23.471Z,36.64
2024-01-11T15:04:02.867Z,37.09
2024-01-11T15:06:47.413Z,40.10
2024-01-11T15:09:28.295Z,47.62
2024-01-11T15:12:07.672Z,49.69
2024-01-11T15:14:47.114Z,51.81
2024-01-11T15:17:26.615Z,52.39
2024-01-11T15:20:07.039Z,53.07
2024-01-11T15:22:51.445Z,53.57
2024-01-11T15:25:31.146Z,53.71
2024-01-11T15:28:10.493Z,54.94
2024-01-11T15:30:50.970Z,54.87
2024-01-11T15:33:30.397Z,53.92
2024-01-11T15:36:09.814Z,54.33
2024-01-11T15:38:58.406Z,55.37
2024-01-11T15:41:44.031Z,55.49
2024-01-11T15:44:24.406Z,55.78
2024-01-11T15:47:04.148Z,56.19
2024-01-11T15:49:43.407Z,56.29
2024-01-11T15:52:22.796Z,56.53
2024-01-11T15:55:07.713Z,56.53
2024-01-11T15:57:47.090Z,55.98
2024-01-11T16:00:26.602Z,56.27
2024-01-11T16:03:09.108Z,56.92
2024-01-11T16:05:48.533Z,57.39
2024-01-11T16:08:27.891Z,57.83
2024-01-11T16:11:12.334Z,58.50
2024-01-11T16:13:52.279Z,58.35
2024-01-11T16:16:31.630Z,58.66
2024-01-11T16:19:12.385Z,58.38
2024-01-11T16:21:51.846Z,58.54
2024-01-11T16:24:31.145Z,58.65
2024-01-11T16:27:16.007Z,58.66
2024-01-11T16:29:55.342Z,58.90
2024-01-11T16:32:35.140Z,58.76
2024-01-11T16:35:15.392Z,59.30
2024-01-11T16:37:54.763Z,59.53
2024-01-11T16:40:34.109Z,60.23
2024-01-11T16:43:18.507Z,60.88
2024-01-11T16:45:57.984Z,61.37
2024-01-11T16:48:37.319Z,60.84
2024-01-11T16:51:16.664Z,61.28
2024-01-11T16:53:55.952Z,62.31
2024-01-11T16:56:36.223Z,62.32
2024-01-11T16:59:20.674Z,61.95
2024-01-11T17:02:00.050Z,62.26
2024-01-11T17:04:39.353Z,62.77
2024-01-11T17:07:18.666Z,63.35
2024-01-11T17:09:58.012Z,63.93
2024-01-11T17:12:38.399Z,64.61
2024-01-11T17:15:24.528Z,65.00
2024-01-11T17:18:04.089Z,64.98
2024-01-11T17:20:43.618Z,65.18
2024-01-11T17:23:23.010Z,65.40
2024-01-11T17:26:05.788Z,65.49
2024-01-11T17:28:45.447Z,65.56
2024-01-11T17:31:29.797Z,65.66
2024-01-11T17:34:09.230Z,65.74
2024-01-11T17:36:48.554Z,65.09
2024-01-11T17:39:28.146Z,64.65
2024-01-11T17:42:07.500Z,64.68
2024-01-11T17:44:46.845Z,64.66
2024-01-11T17:47:31.360Z,65.23
2024-01-11T17:50:11.289Z,65.88
2024-01-11T17:52:51.945Z,65.82
2024-01-11T17:55:31.747Z,65.74
2024-01-11T17:58:11.445Z,65.93
2024-01-11T18:00:50.886Z,66.72
2024-01-11T18:03:35.273Z,67.25
2024-01-11T18:06:17.624Z,68.51
2024-01-11T18:08:57.069Z,68.68
2024-01-11T18:11:36.493Z,69.56
2024-01-11T18:14:15.927Z,69.30
2024-01-11T18:16:55.311Z,68.79
2024-01-11T18:19:39.835Z,69.24
2024-01-11T18:22:19.373Z,69.46
2024-01-11T18:24:58.724Z,69.77
2024-01-11T18:27:38.870Z,69.60
2024-01-11T18:30:19.781Z,69.24
2024-01-11T18:32:59.297Z,69.42
2024-01-11T18:35:43.803Z,69.67
2024-01-11T18:38:24.936Z,69.57
2024-01-11T18:41:04.282Z,68.23
2024-01-11T18:43:43.636Z,68.94
2024-01-11T18:46:23.353Z,69.00
2024-01-11T18:49:05.417Z,68.30
2024-01-11T18:51:52.310Z,67.94
2024-01-11T18:54:31.597Z,68.81
2024-01-11T18:57:12.668Z,68.89
2024-01-11T18:59:52.171Z,69.47
2024-01-11T19:02:31.605Z,69.30
2024-01-11T19:05:12.651Z,69.89
2024-01-11T19:07:58.536Z,69.95
2024-01-11T19:10:37.911Z,69.94
2024-01-11T19:13:18.036Z,70.39
2024-01-11T19:15:57.366Z,70.17
2024-01-11T19:18:37.113Z,70.62
2024-01-11T19:21:16.615Z,70.81
2024-01-11T19:24:01.125Z,71.04
2024-01-11T19:26:40.608Z,71.52
2024-01-11T19:29:20.029Z,71.93
2024-01-11T19:31:59.327Z,71.08
2024-01-11T19:34:39.924Z,71.13
2024-01-11T19:37:21.173Z,71.05
2024-01-11T19:40:07.227Z,70.89
2024-01-11T19:42:46.561Z,71.04
2024-01-11T19:45:25.898Z,70.95
2024-01-11T19:48:05.352Z,71.63
2024-01-11T19:50:45.050Z,72.74
2024-01-11T19:53:24.424Z,72.79
2024-01-11T19:56:08.836Z,72.73
2024-01-11T19:58:48.164Z,72.12
2024-01-11T20:01:27.519Z,71.66
2024-01-11T20:04:07.056Z,71.72
2024-01-11T20:06:48.081Z,71.60
2024-01-11T20:09:27.380Z,72.55
2024-01-11T20:12:12.326Z,72.02
2024-01-11T20:14:51.774Z,71.33
2024-01-11T20:17:31.156Z,71.91
2024-01-11T20:20:10.908Z,72.51
2024-01-11T20:22:50.290Z,72.44
2024-01-11T20:25:29.556Z,72.57
2024-01-11T20:28:14.433Z,72.15
2024-01-11T20:30:53.856Z,71.94
2024-01-11T20:33:33.389Z,70.59
2024-01-11T20:36:13.914Z,72.43
2024-01-11T20:38:53.239Z,71.93
2024-01-11T20:41:32.693Z,73.33
2024-01-11T20:44:17.822Z,72.86
2024-01-11T20:46:59.774Z,72.30
2024-01-11T20:49:40.332Z,72.52
2024-01-11T20:52:19.666Z,72.16
2024-01-11T20:54:58.984Z,72.34
2024-01-11T20:57:39.321Z,72.37
2024-01-11T21:00:26.268Z,73.07
2024-01-11T21:03:05.674Z,71.53
2024-01-11T21:05:47.065Z,71.90
2024-01-11T21:08:27.142Z,72.50
2024-01-11T21:11:06.489Z,72.62
2024-01-11T21:13:45.791Z,72.61
2024-01-11T21:16:30.305Z,72.97
2024-01-11T21:19:10.463Z,71.17
2024-01-11T21:21:52.781Z,71.82
2024-01-11T21:24:32.146Z,73.93
2024-01-11T21:27:11.805Z,73.55
2024-01-11T21:29:51.263Z,71.68
2024-01-11T21:32:35.816Z,72.02
2024-01-11T21:35:20.138Z,73.58
2024-01-11T21:37:59.918Z,73.99
2024-01-11T21:40:41.688Z,73.72
2024-01-11T21:43:20.983Z,74.63
2024-01-11T21:46:00.279Z,73.53
2024-01-11T21:48:44.965Z,73.81
2024-01-11T21:51:25.369Z,73.96
2024-01-11T21:54:04.735Z,73.79
2024-01-11T21:56:44.167Z,74.00
2024-01-11T21:59:23.527Z,74.09
2024-01-11T22:02:02.845Z,73.25
2024-01-11T22:04:47.591Z,73.84
2024-01-11T22:07:27.021Z,74.65
2024-01-11T22:10:06.292Z,73.89
2024-01-11T22:12:45.664Z,73.13
2024-01-11T22:15:25.179Z,72.77
2024-01-11T22:18:04.719Z,73.35
2024-01-11T22:20:49.420Z,73.72
2024-01-11T22:23:28.896Z,73.79
2024-01-11T22:26:08.712Z,73.62
2024-01-11T22:28:48.093Z,72.35
2024-01-11T22:31:28.197Z,73.04
2024-01-11T22:34:07.662Z,74.21
2024-01-11T22:36:54.160Z,74.10
2024-01-11T22:39:33.572Z,74.55
2024-01-11T22:42:13.005Z,76.02
2024-01-11T22:44:52.447Z,76.26
2024-01-11T22:47:32.392Z,76.23
2024-01-11T22:50:12.730Z,75.69
2024-01-11T22:52:57.323Z,73.45
2024-01-11T22:55:36.619Z,72.53
2024-01-11T22:58:16.114Z,73.18
2024-01-11T23:00:57.540Z,73.60
2024-01-11T23:03:36.854Z,74.17
2024-01-11T23:06:16.456Z,73.70
2024-01-11T23:09:01.140Z,74.30
2024-01-11T23:11:40.503Z,74.12
2024-01-11T23:14:20.704Z,73.93
2024-01-11T23:17:00.156Z,73.74
2024-01-11T23:19:39.533Z,74.44
2024-01-11T23:22:18.935Z,74.66
2024-01-11T23:25:03.324Z,75.82
2024-01-11T23:27:42.686Z,76.14
2024-01-11T23:30:22.869Z,74.53
2024-01-11T23:33:02.329Z,73.91
2024-01-11T23:35:41.762Z,73.67
2024-01-11T23:38:21.120Z,74.41
2024-01-11T23:41:05.676Z,73.50
2024-01-11T23:43:45.008Z,75.81
2024-01-11T23:46:24.331Z,75.38
2024-01-11T23:49:03.831Z,76.46
2024-01-11T23:51:43.383Z,76.72
2024-01-11T23:54:22.806Z,76.96
2024-01-11T23:57:07.182Z,75.96
2024-01-11T23:59:49.509Z,76.55
